Time;durP1;ratioP1;P1;durP2;ratioP2;P2;SDS_P1;SDS_P2;PMS_P1;PMS_P2;Temp;Humidity;BMP_temperature;BMP_pressure;BME280_temperature;BME280_humidity;BME280_pressure;Samples;Min_cycle;Max_cycle;Signal;HPM_P1;HPM_P2
2022/12/25 00:00:27;;;;;;;3.73;1.90;;;9.20;99.90;;;;;;5074880;28;20446;-75
2022/12/25 00:02:55;;;;;;;2.30;1.90;;;9.10;99.90;;;;;;5073856;28;20454;-74
2022/12/25 00:05:22;;;;;;;5.23;2.30;;;9.20;99.90;;;;;;5072676;28;20450;-74
2022/12/25 00:07:49;;;;;;;1.73;1.23;;;9.20;99.90;;;;;;5073570;28;20499;-74
2022/12/25 00:10:16;;;;;;;1.73;1.10;;;9.30;99.90;;;;;;5072749;28;20454;-75
2022/12/25 00:12:43;;;;;;;3.53;1.77;;;9.30;99.90;;;;;;5073246;28;20452;-75
2022/12/25 00:15:10;;;;;;;5.07;2.10;;;9.30;99.90;;;;;;5071799;28;20956;-75
2022/12/25 00:17:37;;;;;;;3.50;2.13;;;9.30;99.90;;;;;;5073287;28;20446;-75
2022/12/25 00:20:06;;;;;;;2.77;1.70;;;9.30;99.90;;;;;;5072372;28;20450;-74
2022/12/25 00:22:33;;;;;;;3.80;1.30;;;9.40;99.90;;;;;;5071971;28;20454;-74
2022/12/25 00:25:00;;;;;;;4.30;1.80;;;9.30;99.90;;;;;;5058899;28;20541;-73
2022/12/25 00:27:26;;;;;;;4.17;1.37;;;9.30;99.90;;;;;;5072934;28;20489;-74
2022/12/25 00:29:53;;;;;;;2.83;2.50;;;9.30;99.90;;;;;;5072510;28;20451;-75
2022/12/25 00:32:20;;;;;;;1.73;1.10;;;9.30;99.90;;;;;;5071879;28;20480;-74
2022/12/25 00:34:47;;;;;;;2.27;1.20;;;9.30;99.90;;;;;;5072500;28;20452;-74
2022/12/25 00:37:15;;;;;;;2.10;1.67;;;9.30;99.90;;;;;;5072043;28;20450;-75
2022/12/25 00:39:42;;;;;;;4.90;2.07;;;9.40;99.90;;;;;;5072453;28;20452;-74
2022/12/25 00:42:19;;;;;;;1.73;1.30;;;9.30;99.90;;;;;;5071585;28;20963;-74
2022/12/25 00:44:46;;;;;;;2.50;1.50;;;9.30;99.90;;;;;;5072197;28;20445;-74
2022/12/25 00:47:12;;;;;;;3.03;1.47;;;9.30;99.90;;;;;;5071677;28;20446;-74
2022/12/25 00:49:39;;;;;;;4.57;1.77;;;9.30;99.90;;;;;;5072093;28;20451;-74
2022/12/25 00:52:07;;;;;;;2.70;1.60;;;9.30;99.90;;;;;;5071705;28;20512;-74
2022/12/25 00:54:35;;;;;;;3.90;2.20;;;9.30;99.90;;;;;;5071762;28;20449;-74
2022/12/25 00:57:02;;;;;;;2.50;1.80;;;9.30;99.90;;;;;;5071912;28;20450;-74
2022/12/25 00:59:31;;;;;;;1.97;1.10;;;9.30;99.90;;;;;;5072484;28;20554;-74
2022/12/25 01:02:21;;;;;;;1.57;1.10;;;9.30;99.90;;;;;;5072289;28;20447;-74
2022/12/25 01:04:46;;;;;;;3.90;1.10;;;9.40;99.90;;;;;;5071234;28;20476;-74
2022/12/25 01:07:15;;;;;;;2.57;1.47;;;9.40;99.90;;;;;;5071281;28;20458;-74
2022/12/25 01:12:28;;;;;;;3.70;1.67;;;9.30;99.90;;;;;;5072138;28;20474;-75
2022/12/25 01:14:54;;;;;;;2.23;1.90;;;9.30;99.90;;;;;;5071277;28;20449;-74
2022/12/25 01:17:21;;;;;;;1.80;1.37;;;9.50;99.90;;;;;;5071394;28;20460;-74
2022/12/25 01:19:48;;;;;;;2.90;1.60;;;9.50;99.90;;;;;;5071412;28;20452;-75
2022/12/25 01:22:16;;;;;;;2.00;1.50;;;9.50;99.90;;;;;;5071382;28;20443;-74
2022/12/25 01:24:44;;;;;;;3.70;1.50;;;9.50;99.90;;;;;;5071152;28;20451;-74
2022/12/25 01:27:11;;;;;;;2.50;1.90;;;9.50;99.90;;;;;;5071444;28;20439;-74
2022/12/25 01:29:38;;;;;;;2.00;1.53;;;9.70;99.90;;;;;;5071433;28;21040;-74
2022/12/25 01:32:06;;;;;;;2.07;1.80;;;9.70;99.90;;;;;;5070924;28;20941;-75
2022/12/25 01:34:33;;;;;;;2.30;1.47;;;9.80;99.90;;;;;;5070516;28;20959;-74
2022/12/25 01:37:00;;;;;;;1.90;1.47;;;9.90;99.90;;;;;;5071136;28;20533;-72
2022/12/25 01:39:27;;;;;;;4.27;1.47;;;9.80;99.90;;;;;;5058843;28;20462;-74
2022/12/25 01:41:56;;;;;;;1.63;1.53;;;9.80;99.90;;;;;;5071623;28;20456;-74
2022/12/25 01:45:00;;;;;;;2.10;1.13;;;9.80;99.90;;;;;;5070781;28;20804;-75
2022/12/25 01:47:27;;;;;;;7.53;1.50;;;9.90;99.90;;;;;;5071283;28;20953;-75
2022/12/25 01:49:53;;;;;;;1.87;1.57;;;9.90;99.90;;;;;;5071316;28;20518;-74
2022/12/25 01:52:23;;;;;;;1.60;1.37;;;9.90;99.90;;;;;;5070632;28;20456;-74
2022/12/25 01:54:53;;;;;;;3.07;2.17;;;9.90;99.90;;;;;;5070835;28;20452;-74
2022/12/25 01:57:25;;;;;;;1.87;1.40;;;9.90;99.90;;;;;;5070803;28;20935;-74
2022/12/25 01:59:53;;;;;;;2.60;1.27;;;9.90;99.90;;;;;;5071304;28;20447;-74
2022/12/25 02:02:20;;;;;;;2.27;1.83;;;9.80;99.90;;;;;;5070648;28;20465;-74
2022/12/25 02:04:54;;;;;;;2.23;1.70;;;9.80;99.90;;;;;;5070605;28;20447;-74
2022/12/25 02:07:22;;;;;;;5.47;2.20;;;9.70;99.90;;;;;;5070834;28;20490;-74
2022/12/25 02:09:50;;;;;;;2.77;1.43;;;9.80;99.90;;;;;;5071282;28;20749;-74
2022/12/25 02:12:20;;;;;;;1.60;1.20;;;9.70;99.90;;;;;;5070844;28;20775;-74
2022/12/25 02:14:49;;;;;;;2.70;1.67;;;9.80;99.90;;;;;;5070429;28;20969;-74
2022/12/25 02:17:24;;;;;;;2.63;1.70;;;9.70;99.90;;;;;;5070587;28;20452;-73
2022/12/25 02:20:09;;;;;;;6.73;1.23;;;9.70;99.90;;;;;;5071112;28;20452;-74
2022/12/25 02:22:50;;;;;;;1.40;1.13;;;9.70;99.90;;;;;;5071239;28;20451;-74
2022/12/25 02:25:33;;;;;;;1.87;1.10;;;9.70;99.90;;;;;;5070438;28;20452;-74
2022/12/25 02:28:12;;;;;;;1.83;1.30;;;9.50;99.90;;;;;;5070155;28;20924;-73
2022/12/25 02:30:44;;;;;;;1.37;1.27;;;9.50;99.90;;;;;;5071174;28;20448;-74
2022/12/25 02:36:05;;;;;;;2.17;1.97;;;9.50;99.90;;;;;;5070876;28;20810;-72
2022/12/25 02:38:36;;;;;;;1.73;1.27;;;9.50;99.90;;;;;;5071449;28;20569;-76
2022/12/25 02:41:07;;;;;;;1.80;1.17;;;9.50;99.90;;;;;;5057155;28;20459;-73
2022/12/25 03:08:51;;;;;;;2.50;1.17;;;9.50;99.90;;;;;;5073951;28;20994;-75
2022/12/25 03:11:29;;;;;;;2.70;1.70;;;9.60;99.90;;;;;;5073803;28;20456;-75
2022/12/25 03:16:49;;;;;;;1.70;1.40;;;9.70;99.90;;;;;;5074146;28;20539;-75
2022/12/25 03:16:51;;;;;;;1.93;1.77;;;9.80;99.90;;;;;;5073840;28;20536;-75
2022/12/25 03:27:39;;;;;;;2.40;1.47;;;9.70;99.90;;;;;;5073799;28;20433;-75
2022/12/25 03:33:04;;;;;;;2.23;1.63;;;9.70;99.90;;;;;;5073798;28;20908;-75
2022/12/25 03:35:43;;;;;;;1.67;1.43;;;9.70;99.90;;;;;;5073747;28;20534;-74
2022/12/25 04:36:36;;;;;;;2.17;1.77;;;9.00;99.90;;;;;;5041473;28;20521;-74
2022/12/25 04:39:04;;;;;;;1.70;1.43;;;8.90;99.90;;;;;;5072257;28;20925;-74
2022/12/25 04:41:31;;;;;;;2.10;1.40;;;9.00;99.90;;;;;;5072595;28;20451;-74
2022/12/25 04:43:58;;;;;;;2.23;2.00;;;9.00;99.90;;;;;;5072332;28;20457;-74
2022/12/25 04:46:25;;;;;;;2.60;1.17;;;9.10;99.90;;;;;;5072515;28;20454;-74
2022/12/25 04:48:52;;;;;;;2.97;2.27;;;9.00;99.90;;;;;;5072338;28;20482;-74
2022/12/25 04:51:21;;;;;;;2.43;2.10;;;9.10;99.90;;;;;;5071829;28;20449;-74
2022/12/25 04:53:49;;;;;;;2.63;1.70;;;9.00;99.90;;;;;;5072252;28;20450;-74
2022/12/25 04:56:18;;;;;;;2.33;2.00;;;8.90;99.90;;;;;;5072458;28;20492;-73
2022/12/25 04:58:46;;;;;;;6.73;1.90;;;8.80;99.90;;;;;;5073997;28;20460;-73
2022/12/25 05:01:13;;;;;;;3.93;2.43;;;8.90;99.90;;;;;;5076577;28;20453;-74
2022/12/25 05:03:40;;;;;;;4.37;2.27;;;9.00;99.90;;;;;;5078138;28;20438;-74
2022/12/25 05:06:07;;;;;;;3.33;1.93;;;8.90;99.90;;;;;;5078310;28;20442;-73
2022/12/25 05:08:35;;;;;;;2.53;1.63;;;8.90;99.90;;;;;;5079804;28;20489;-73
2022/12/25 05:11:05;;;;;;;3.30;2.20;;;9.00;99.90;;;;;;5080795;28;20445;-73
2022/12/25 05:13:34;;;;;;;2.47;2.07;;;9.00;99.90;;;;;;5079267;28;20446;-74
2022/12/25 05:16:00;;;;;;;3.03;2.03;;;9.00;99.90;;;;;;5079580;28;20453;-73
2022/12/25 05:18:27;;;;;;;3.13;2.20;;;8.90;99.90;;;;;;5075119;28;20454;-74
2022/12/25 05:20:54;;;;;;;3.70;3.07;;;8.90;99.90;;;;;;5073417;28;20457;-74
2022/12/25 05:23:22;;;;;;;4.60;2.10;;;9.00;99.90;;;;;;5071760;28;20452;-74
2022/12/25 05:25:49;;;;;;;2.10;1.87;;;8.90;99.90;;;;;;5072249;28;20457;-74
2022/12/25 05:28:16;;;;;;;2.80;2.40;;;8.90;99.90;;;;;;5071319;28;20454;-74
2022/12/25 05:30:44;;;;;;;5.17;2.33;;;9.00;99.90;;;;;;5071758;28;20468;-74
2022/12/25 05:33:10;;;;;;;5.00;2.90;;;9.10;99.90;;;;;;5070547;28;20453;-74
2022/12/25 05:35:38;;;;;;;2.90;2.07;;;9.10;99.90;;;;;;5071455;28;20452;-74
2022/12/25 05:38:05;;;;;;;3.87;2.27;;;9.00;99.90;;;;;;5071313;28;20450;-74
2022/12/25 05:40:31;;;;;;;2.50;2.17;;;9.00;99.90;;;;;;5071283;28;20796;-73
2022/12/25 05:42:59;;;;;;;3.20;2.40;;;9.00;99.90;;;;;;5071495;28;20449;-74
2022/12/25 05:45:26;;;;;;;4.93;2.80;;;9.00;99.90;;;;;;5071776;28;20454;-74
2022/12/25 05:47:54;;;;;;;3.10;2.27;;;9.00;99.90;;;;;;5071336;28;20461;-74
2022/12/25 05:50:21;;;;;;;4.73;2.83;;;9.10;99.90;;;;;;5070713;28;20486;-74
2022/12/25 05:52:48;;;;;;;2.90;2.20;;;9.20;99.90;;;;;;5071188;28;20536;-73
2022/12/25 05:55:15;;;;;;;2.83;2.53;;;9.10;99.90;;;;;;5070887;28;20444;-74
2022/12/25 05:57:42;;;;;;;7.17;3.00;;;9.00;99.90;;;;;;5071295;28;20447;-74
2022/12/25 06:00:09;;;;;;;2.80;2.43;;;9.00;99.90;;;;;;5070844;28;20450;-73
2022/12/25 06:02:36;;;;;;;2.93;2.50;;;9.00;99.90;;;;;;5071158;28;20451;-74
2022/12/25 06:05:05;;;;;;;5.33;2.83;;;9.00;99.90;;;;;;5069968;28;20450;-73
2022/12/25 06:07:32;;;;;;;3.00;2.50;;;9.10;99.90;;;;;;5071357;28;20464;-73
2022/12/25 06:09:59;;;;;;;2.60;1.90;;;9.20;99.90;;;;;;5070871;28;21027;-74
2022/12/25 06:12:26;;;;;;;3.90;2.47;;;9.20;99.90;;;;;;5071511;28;20446;-74
2022/12/25 06:14:52;;;;;;;3.83;2.57;;;9.10;99.90;;;;;;5070862;28;20457;-74
2022/12/25 06:17:19;;;;;;;3.10;2.40;;;9.10;99.90;;;;;;5070744;28;20627;-75
2022/12/25 06:19:46;;;;;;;4.10;2.20;;;9.20;99.90;;;;;;5071039;28;20443;-74
2022/12/25 06:22:14;;;;;;;3.33;2.23;;;9.20;99.90;;;;;;5074719;28;20476;-74
2022/12/25 06:24:41;;;;;;;1.70;1.60;;;9.20;99.90;;;;;;5074473;28;20942;-74
2022/12/25 06:27:08;;;;;;;2.70;2.07;;;9.20;99.90;;;;;;5074723;28;20448;-74
2022/12/25 06:29:34;;;;;;;3.70;2.10;;;9.20;99.90;;;;;;5075079;28;20488;-74
2022/12/25 06:32:01;;;;;;;1.70;1.40;;;9.20;99.90;;;;;;5074610;28;20454;-74
2022/12/25 06:34:28;;;;;;;3.30;2.27;;;9.20;99.90;;;;;;5075081;28;20445;-74
2022/12/25 06:36:55;;;;;;;3.20;2.10;;;9.00;99.90;;;;;;5075002;28;20461;-73
2022/12/25 06:39:24;;;;;;;4.57;2.40;;;9.10;99.90;;;;;;5074339;28;20544;-74
2022/12/25 06:41:51;;;;;;;1.80;1.43;;;9.10;99.90;;;;;;5074936;28;20480;-74
2022/12/25 06:44:18;;;;;;;2.03;1.40;;;9.10;99.90;;;;;;5060458;28;20452;-74
2022/12/25 06:46:45;;;;;;;3.23;2.17;;;9.20;99.90;;;;;;5074534;28;20450;-74
2022/12/25 06:49:11;;;;;;;2.53;2.20;;;9.10;99.90;;;;;;5074187;28;20479;-75
2022/12/25 06:51:38;;;;;;;5.03;2.33;;;9.10;99.90;;;;;;5074650;28;20537;-73
2022/12/25 06:54:05;;;;;;;2.10;1.50;;;9.10;99.90;;;;;;5073659;28;20451;-74
2022/12/25 06:56:34;;;;;;;2.63;2.00;;;9.10;99.90;;;;;;5074405;28;20448;-74
2022/12/25 06:59:03;;;;;;;2.00;1.63;;;9.20;99.90;;;;;;5074006;28;20458;-74
2022/12/25 07:01:33;;;;;;;2.47;1.97;;;9.10;99.90;;;;;;5074622;28;20459;-73
2022/12/25 07:04:02;;;;;;;2.50;1.63;;;9.30;99.90;;;;;;5073486;28;20449;-73
2022/12/25 07:06:29;;;;;;;3.23;2.37;;;9.30;99.90;;;;;;5074347;28;20450;-74
2022/12/25 07:08:56;;;;;;;2.20;2.00;;;9.20;99.90;;;;;;5074584;28;20826;-74
2022/12/25 07:11:23;;;;;;;1.87;1.57;;;9.20;99.90;;;;;;5073356;28;20457;-74
2022/12/25 07:13:52;;;;;;;1.70;0.97;;;9.20;99.90;;;;;;5073947;28;20457;-74
2022/12/25 07:16:19;;;;;;;1.93;1.60;;;9.20;99.90;;;;;;5073725;28;20796;-76
2022/12/25 07:18:45;;;;;;;1.97;1.50;;;9.20;99.90;;;;;;5074280;28;20451;-74
2022/12/25 07:21:14;;;;;;;2.03;1.37;;;9.40;99.90;;;;;;5073489;28;20451;-74
2022/12/25 07:23:41;;;;;;;2.90;1.70;;;9.40;99.90;;;;;;5073905;28;20457;-74
2022/12/25 07:26:07;;;;;;;3.07;1.93;;;9.30;99.90;;;;;;5073224;28;20446;-74
2022/12/25 07:28:34;;;;;;;3.20;1.63;;;9.40;99.90;;;;;;5074092;28;20805;-74
2022/12/25 07:31:03;;;;;;;5.13;1.63;;;9.40;99.90;;;;;;5072776;28;20495;-73
2022/12/25 07:33:31;;;;;;;2.10;1.60;;;9.30;99.90;;;;;;5073704;28;20444;-73
2022/12/25 07:35:58;;;;;;;1.93;1.13;;;9.30;99.90;;;;;;5073905;28;20448;-74
2022/12/25 07:38:25;;;;;;;2.33;1.60;;;9.40;99.90;;;;;;5073815;28;20460;-74
2022/12/25 07:40:52;;;;;;;1.73;1.33;;;9.30;99.90;;;;;;5073451;28;20451;-74
2022/12/25 07:43:19;;;;;;;3.50;1.20;;;9.40;99.90;;;;;;5073144;28;20690;-75
2022/12/25 07:45:47;;;;;;;1.90;1.57;;;9.50;99.90;;;;;;5073448;28;20448;-74
2022/12/25 07:48:15;;;;;;;1.70;1.30;;;9.60;99.90;;;;;;5072839;28;20540;-75
2022/12/25 07:50:42;;;;;;;1.77;1.27;;;10.00;99.90;;;;;;5073352;28;21015;-74
2022/12/25 07:53:08;;;;;;;3.17;2.00;;;10.00;99.90;;;;;;5072744;28;20484;-74
2022/12/25 07:55:35;;;;;;;2.07;1.77;;;9.80;99.90;;;;;;5073174;28;20533;-74
2022/12/25 07:58:02;;;;;;;2.33;1.60;;;9.60;99.90;;;;;;5073234;28;20455;-73
2022/12/25 08:00:31;;;;;;;2.40;1.80;;;9.60;99.90;;;;;;5073581;28;20448;-73
2022/12/25 08:02:58;;;;;;;4.20;1.40;;;9.50;99.90;;;;;;5073348;28;20452;-73
2022/12/25 08:05:26;;;;;;;2.27;1.50;;;9.30;99.90;;;;;;5073099;28;20458;-74
2022/12/25 08:07:53;;;;;;;1.60;1.37;;;9.20;99.90;;;;;;5073067;28;20463;-73
2022/12/25 08:10:21;;;;;;;4.70;1.80;;;9.20;99.90;;;;;;5059451;28;20720;-74
2022/12/25 08:12:47;;;;;;;2.40;1.70;;;9.20;99.90;;;;;;5072837;28;20439;-73
2022/12/25 08:15:14;;;;;;;3.37;1.53;;;9.20;99.90;;;;;;5072700;28;20455;-73
2022/12/25 08:17:41;;;;;;;1.40;1.30;;;9.30;99.90;;;;;;5072768;28;20534;-73
2022/12/25 08:20:09;;;;;;;1.40;1.07;;;9.30;99.90;;;;;;5072057;28;20456;-73
2022/12/25 08:22:37;;;;;;;1.40;1.20;;;9.30;99.90;;;;;;5072633;28;20456;-73
2022/12/25 08:25:04;;;;;;;1.87;1.27;;;9.30;99.90;;;;;;5072538;28;20793;-73
2022/12/25 08:27:31;;;;;;;1.20;1.00;;;9.40;99.90;;;;;;5072958;28;20452;-73
2022/12/25 08:29:58;;;;;;;3.47;1.33;;;9.40;99.90;;;;;;5073041;28;20826;-73
2022/12/25 08:32:25;;;;;;;2.03;1.20;;;9.40;99.90;;;;;;5073024;28;20475;-73
2022/12/25 08:34:52;;;;;;;5.20;1.40;;;9.40;99.90;;;;;;5072220;28;20452;-74
2022/12/25 08:37:18;;;;;;;2.90;1.60;;;9.40;99.90;;;;;;5072022;28;20467;-73
2022/12/25 08:39:46;;;;;;;2.17;1.43;;;9.50;99.90;;;;;;5072355;28;20461;-75
2022/12/25 08:42:14;;;;;;;1.47;1.37;;;9.50;99.90;;;;;;5071946;28;20441;-74
2022/12/25 08:44:40;;;;;;;1.60;1.50;;;9.50;99.90;;;;;;5071661;28;20458;-74
2022/12/25 08:47:07;;;;;;;2.13;1.57;;;9.50;99.90;;;;;;5071953;28;20472;-74
2022/12/25 08:49:34;;;;;;;1.93;1.47;;;9.50;99.90;;;;;;5072254;28;20463;-72
2022/12/25 08:52:01;;;;;;;2.57;2.23;;;9.60;99.90;;;;;;5071977;28;20448;-73
2022/12/25 08:54:30;;;;;;;2.20;2.00;;;9.60;99.90;;;;;;5072202;28;20450;-74
2022/12/25 08:56:59;;;;;;;4.23;2.93;;;9.50;99.90;;;;;;5072441;28;20548;-74
2022/12/25 08:59:26;;;;;;;5.00;2.57;;;9.40;99.90;;;;;;5072431;28;20443;-74
2022/12/25 09:01:52;;;;;;;2.90;2.57;;;9.20;99.90;;;;;;5072217;28;20454;-74
2022/12/25 09:04:19;;;;;;;2.43;1.40;;;9.30;99.90;;;;;;5071332;28;20709;-74
2022/12/25 09:06:46;;;;;;;2.30;1.70;;;9.30;99.90;;;;;;5072059;28;20446;-74
2022/12/25 09:09:13;;;;;;;3.00;2.70;;;9.30;99.90;;;;;;5071157;28;20510;-74
2022/12/25 09:11:40;;;;;;;2.23;1.30;;;9.30;99.90;;;;;;5071661;28;20484;-74
2022/12/25 09:14:09;;;;;;;2.20;1.40;;;9.40;99.90;;;;;;5070930;28;20931;-74
2022/12/25 09:16:36;;;;;;;3.33;2.23;;;9.40;99.90;;;;;;5072025;28;20444;-74
2022/12/25 09:19:03;;;;;;;2.23;1.83;;;9.50;99.90;;;;;;5071340;28;20455;-74
2022/12/25 09:21:29;;;;;;;3.03;2.23;;;9.50;99.90;;;;;;5071830;28;20456;-74
2022/12/25 09:23:56;;;;;;;4.33;2.30;;;9.50;99.90;;;;;;5071335;28;20457;-74
2022/12/25 09:26:23;;;;;;;3.10;2.07;;;9.50;99.90;;;;;;5071147;28;20459;-74
2022/12/25 09:28:50;;;;;;;2.43;2.13;;;9.60;99.90;;;;;;5071785;28;20475;-74
2022/12/25 09:31:18;;;;;;;3.17;2.23;;;9.60;99.90;;;;;;5071014;28;20483;-74
2022/12/25 09:33:45;;;;;;;3.43;2.40;;;9.70;99.90;;;;;;5071213;28;20452;-73
2022/12/25 09:36:12;;;;;;;5.93;3.13;;;9.60;99.90;;;;;;5070667;28;20952;-74
2022/12/25 09:38:39;;;;;;;2.90;2.07;;;9.60;99.90;;;;;;5071617;28;20450;-73
2022/12/25 09:41:13;;;;;;;4.23;2.43;;;9.60;99.90;;;;;;5071151;28;20453;-74
2022/12/25 09:43:46;;;;;;;3.27;2.57;;;9.70;99.90;;;;;;5071139;28;20436;-75
2022/12/25 09:46:19;;;;;;;3.20;1.77;;;9.70;99.90;;;;;;5070885;28;20448;-74
2022/12/25 09:48:57;;;;;;;2.27;1.60;;;9.80;99.90;;;;;;5071373;28;20452;-74
2022/12/25 09:51:26;;;;;;;2.90;2.33;;;9.80;99.90;;;;;;5070827;28;20578;-74
2022/12/25 09:54:00;;;;;;;1.70;1.30;;;9.80;99.90;;;;;;5070744;28;20449;-75
2022/12/25 09:56:27;;;;;;;3.20;2.50;;;9.90;99.90;;;;;;5071624;28;20453;-75
2022/12/25 09:58:54;;;;;;;3.13;2.10;;;10.00;99.90;;;;;;5057946;28;20468;-75
2022/12/25 10:01:29;;;;;;;3.37;2.13;;;10.00;99.90;;;;;;5070710;28;20456;-75
2022/12/25 10:04:22;;;;;;;4.80;1.67;;;10.10;99.90;;;;;;5058802;28;20437;-74
2022/12/25 10:07:02;;;;;;;9.10;2.30;;;10.10;99.90;;;;;;5071160;28;20506;-74
2022/12/25 10:09:50;;;;;;;3.20;2.30;;;10.10;99.90;;;;;;5071674;28;20518;-74
2022/12/25 10:12:31;;;;;;;3.60;2.37;;;10.30;99.90;;;;;;5070878;28;20448;-75
2022/12/25 10:15:14;;;;;;;3.13;1.57;;;10.30;99.90;;;;;;5071326;28;20442;-74
2022/12/25 10:17:59;;;;;;;3.03;2.00;;;10.50;99.90;;;;;;5071345;28;20450;-74
2022/12/25 10:20:39;;;;;;;2.10;1.57;;;10.50;99.90;;;;;;5071219;28;20449;-74
2022/12/25 10:23:13;;;;;;;2.23;1.90;;;10.50;99.90;;;;;;5070806;28;20450;-74
2022/12/25 10:25:41;;;;;;;1.90;1.73;;;10.60;99.90;;;;;;5072490;28;20464;-74
2022/12/25 10:28:14;;;;;;;5.73;4.03;;;10.70;99.90;;;;;;5074905;28;20446;-74
2022/12/25 10:30:44;;;;;;;4.63;3.90;;;10.80;99.90;;;;;;5079016;28;20500;-74
2022/12/25 10:33:14;;;;;;;2.40;2.13;;;10.90;99.90;;;;;;5079027;28;20467;-74
2022/12/25 10:35:41;;;;;;;4.03;3.10;;;11.10;99.90;;;;;;5081331;28;20446;-75
2022/12/25 10:38:13;;;;;;;3.93;2.53;;;11.20;99.90;;;;;;5082059;28;20523;-74
2022/12/25 10:40:52;;;;;;;3.93;2.20;;;11.50;99.90;;;;;;5083647;28;20445;-74
2022/12/25 10:43:25;;;;;;;3.40;2.63;;;11.70;31.10;;;;;;5079827;28;20704;-74
2022/12/25 10:45:52;;;;;;;4.10;3.07;;;11.90;1.00;;;;;;5077060;28;20456;-75
2022/12/25 10:48:25;;;;;;;5.37;3.10;;;11.90;3.80;;;;;;5071550;28;20476;-74
2022/12/25 10:50:52;;;;;;;3.40;2.10;;;12.00;20.60;;;;;;5058909;28;20473;-74
2022/12/25 10:53:22;;;;;;;2.57;1.53;;;12.00;26.90;;;;;;5070316;28;20453;-74
2022/12/25 10:55:57;;;;;;;2.77;1.30;;;12.20;38.10;;;;;;5071199;28;20809;-74
2022/12/25 10:58:23;;;;;;;1.80;1.27;;;12.30;1.00;;;;;;5070010;28;20453;-74
2022/12/25 11:00:56;;;;;;;1.93;1.30;;;12.30;1.00;;;;;;5070838;28;20464;-74
2022/12/25 11:03:28;;;;;;;3.40;1.57;;;12.50;1.00;;;;;;5069565;28;20465;-74
2022/12/25 11:05:55;;;;;;;2.33;1.57;;;12.70;1.00;;;;;;5070834;28;20450;-74
2022/12/25 11:08:25;;;;;;;1.40;1.20;;;12.80;1.00;;;;;;5073699;28;20473;-74
2022/12/25 11:10:54;;;;;;;2.03;1.30;;;12.80;1.00;;;;;;5074020;28;20512;-74
2022/12/25 11:13:24;;;;;;;5.83;1.53;;;12.80;1.00;;;;;;5073426;28;20475;-74
2022/12/25 11:16:01;;;;;;;1.30;0.80;;;12.90;1.00;;;;;;5074328;28;20538;-74
2022/12/25 11:18:32;;;;;;;1.90;1.30;;;12.90;1.00;;;;;;5066548;28;20445;-74
2022/12/25 11:21:02;;;;;;;1.40;0.97;;;12.90;1.00;;;;;;5073904;28;20785;-71
2022/12/25 11:23:31;;;;;;;2.10;1.20;;;13.00;1.00;;;;;;5073855;28;20452;-74
2022/12/25 11:26:00;;;;;;;3.40;1.20;;;13.10;1.00;;;;;;5074064;28;20456;-74
2022/12/25 11:28:28;;;;;;;2.00;1.33;;;13.10;99.90;;;;;;5073959;28;20454;-74
2022/12/25 11:30:59;;;;;;;2.20;1.43;;;13.20;99.90;;;;;;5073937;28;20485;-74
2022/12/25 11:33:32;;;;;;;4.50;1.27;;;13.20;99.90;;;;;;5073442;28;20450;-74
2022/12/25 11:36:04;;;;;;;2.30;1.27;;;13.30;99.90;;;;;;5074035;28;20456;-72
2022/12/25 11:38:30;;;;;;;2.17;1.50;;;13.30;99.90;;;;;;5073989;28;20940;-74
2022/12/25 11:41:01;;;;;;;1.90;1.00;;;13.30;99.90;;;;;;5073800;28;20453;-74
2022/12/25 11:43:33;;;;;;;2.20;1.30;;;13.50;99.90;;;;;;5073513;28;20443;-74
2022/12/25 11:46:10;;;;;;;1.90;1.30;;;13.60;99.90;;;;;;5060349;28;20446;-73
2022/12/25 11:48:42;;;;;;;1.77;1.20;;;13.70;99.90;;;;;;5073514;28;20444;-74
2022/12/25 11:51:10;;;;;;;1.40;1.00;;;13.80;3.30;;;;;;5073030;28;20473;-74
2022/12/25 11:53:41;;;;;;;2.93;1.17;;;13.90;1.00;;;;;;5073141;28;20445;-74
2022/12/25 11:56:09;;;;;;;2.10;1.37;;;14.10;1.00;;;;;;5073214;28;20446;-74
2022/12/25 11:58:39;;;;;;;3.83;1.10;;;14.00;1.00;;;;;;5073173;28;20437;-74
2022/12/25 12:01:15;;;;;;;1.80;1.20;;;14.00;1.00;;;;;;5073080;28;20453;-74
2022/12/25 12:03:44;;;;;;;1.47;1.00;;;14.10;1.00;;;;;;5073066;28;20448;-74
2022/12/25 12:06:17;;;;;;;2.20;1.20;;;14.00;1.00;;;;;;5072747;28;20438;-74
2022/12/25 12:08:46;;;;;;;1.67;1.10;;;14.00;1.00;;;;;;5060656;28;20481;-74
2022/12/25 12:11:19;;;;;;;3.37;1.33;;;14.10;1.00;;;;;;5072371;28;20492;-74
2022/12/25 12:13:59;;;;;;;1.67;1.07;;;14.10;1.00;;;;;;5072910;28;20453;-74
2022/12/25 12:16:26;;;;;;;2.10;1.40;;;14.20;99.90;;;;;;5073168;28;20446;-74
2022/12/25 12:18:54;;;;;;;2.30;1.30;;;14.30;99.90;;;;;;5073090;28;20454;-74
2022/12/25 12:21:23;;;;;;;1.10;1.00;;;14.30;99.90;;;;;;5072351;28;20826;-74
2022/12/25 12:23:54;;;;;;;1.47;1.20;;;14.30;99.90;;;;;;5072665;28;20446;-74
2022/12/25 12:26:23;;;;;;;1.40;1.00;;;14.30;99.90;;;;;;5072422;28;20803;-74
2022/12/25 12:28:53;;;;;;;1.70;0.90;;;14.30;99.90;;;;;;5073089;28;20454;-74
2022/12/25 12:31:20;;;;;;;4.13;1.00;;;14.40;99.90;;;;;;5071971;28;21031;-74
2022/12/25 12:33:55;;;;;;;0.90;0.77;;;14.40;99.90;;;;;;5072424;28;20446;-74
2022/12/25 12:36:25;;;;;;;2.30;1.27;;;14.30;99.90;;;;;;5072234;28;20796;-74
2022/12/25 12:38:54;;;;;;;1.20;1.07;;;14.30;99.90;;;;;;5072866;28;20462;-74
2022/12/25 12:41:23;;;;;;;2.00;1.30;;;14.40;99.90;;;;;;5072197;28;20855;-75
2022/12/25 12:43:54;;;;;;;2.10;1.13;;;14.40;99.90;;;;;;5072133;28;20781;-74
2022/12/25 12:46:23;;;;;;;1.20;1.00;;;14.50;1.00;;;;;;5071939;28;20445;-75
2022/12/25 12:48:53;;;;;;;1.60;0.90;;;14.70;1.00;;;;;;5072452;28;20472;-74
2022/12/25 12:51:30;;;;;;;1.93;0.80;;;14.70;90.30;;;;;;5071817;28;20887;-74
2022/12/25 12:54:19;;;;;;;1.70;1.20;;;14.70;20.30;;;;;;5071805;28;20441;-74
2022/12/25 12:56:56;;;;;;;2.87;1.17;;;14.80;1.00;;;;;;5072373;28;20450;-74
2022/12/25 12:59:23;;;;;;;1.10;0.83;;;14.80;1.00;;;;;;5071668;28;20458;-74
2022/12/25 13:02:01;;;;;;;1.33;1.03;;;14.80;1.00;;;;;;5072329;28;20457;-74
2022/12/25 13:04:48;;;;;;;2.30;0.90;;;14.70;1.00;;;;;;5072583;28;20438;-74
2022/12/25 13:07:31;;;;;;;5.13;1.17;;;14.70;1.00;;;;;;5071510;28;20456;-74
2022/12/25 13:10:11;;;;;;;1.70;1.03;;;14.70;1.00;;;;;;5071892;28;20480;-74
2022/12/25 13:12:38;;;;;;;1.43;0.97;;;14.70;1.00;;;;;;5071873;28;20832;-74
2022/12/25 13:15:12;;;;;;;1.23;0.80;;;14.80;1.00;;;;;;5071438;28;20442;-74
2022/12/25 13:17:42;;;;;;;2.27;1.00;;;14.80;1.00;;;;;;5072093;28;20442;-74
2022/12/25 13:20:19;;;;;;;6.50;1.30;;;14.90;1.00;;;;;;5071606;28;20488;-74
2022/12/25 13:22:47;;;;;;;1.40;1.30;;;14.90;1.00;;;;;;5071354;28;20774;-74
2022/12/25 13:25:19;;;;;;;1.83;1.13;;;14.90;1.00;;;;;;5071375;28;20446;-74
2022/12/25 13:27:54;;;;;;;1.20;0.80;;;14.90;1.00;;;;;;5071637;28;20444;-74
2022/12/25 13:30:22;;;;;;;1.43;1.10;;;15.00;1.00;;;;;;5070826;28;20467;-74
2022/12/25 13:32:49;;;;;;;1.77;1.20;;;14.90;1.00;;;;;;5071004;28;20486;-74
2022/12/25 13:35:17;;;;;;;2.93;1.30;;;15.00;1.00;;;;;;5071055;28;20441;-74
2022/12/25 13:37:45;;;;;;;1.83;1.53;;;15.10;1.00;;;;;;5070955;28;20540;-74
2022/12/25 13:40:22;;;;;;;1.13;0.90;;;15.10;1.00;;;;;;5070862;28;20460;-74
2022/12/25 13:42:48;;;;;;;2.20;1.30;;;15.20;99.90;;;;;;5071244;28;20455;-74
2022/12/25 13:45:23;;;;;;;2.40;0.87;;;15.20;99.90;;;;;;5070617;28;20449;-75
2022/12/25 13:47:50;;;;;;;2.03;1.10;;;15.10;1.00;;;;;;5071112;28;20453;-75
2022/12/25 13:50:22;;;;;;;1.23;1.13;;;15.30;99.90;;;;;;5070951;28;20452;-75
2022/12/25 13:52:49;;;;;;;1.37;1.27;;;15.30;99.90;;;;;;5070486;28;20481;-74
2022/12/25 13:55:19;;;;;;;1.20;0.90;;;15.00;1.00;;;;;;5070588;28;20460;-74
2022/12/25 13:57:52;;;;;;;1.30;1.10;;;14.90;1.00;;;;;;5071402;28;20446;-75
2022/12/25 14:00:22;;;;;;;1.77;1.30;;;14.80;99.90;;;;;;5070767;28;20732;-74
2022/12/25 14:02:50;;;;;;;1.97;1.40;;;14.90;95.60;;;;;;5070535;28;20460;-75
2022/12/25 14:05:26;;;;;;;2.87;1.80;;;14.80;99.90;;;;;;5070770;28;20449;-75
2022/12/25 14:07:54;;;;;;;2.73;1.37;;;14.70;99.90;;;;;;5070866;28;20479;-75
2022/12/25 14:10:24;;;;;;;2.00;1.00;;;14.70;1.00;;;;;;5057559;28;20456;-74
2022/12/25 14:12:54;;;;;;;2.10;1.60;;;14.60;1.00;;;;;;5070824;28;20469;-74
2022/12/25 14:15:23;;;;;;;2.80;1.30;;;14.60;32.10;;;;;;5070275;28;20452;-75
2022/12/25 14:17:51;;;;;;;2.27;1.30;;;14.50;1.00;;;;;;5070911;28;20457;-74
2022/12/25 14:20:24;;;;;;;2.10;1.60;;;14.30;1.00;;;;;;5070674;28;20452;-74
2022/12/25 14:22:52;;;;;;;4.60;1.50;;;14.20;1.00;;;;;;5070439;28;20464;-75
2022/12/25 14:25:19;;;;;;;5.07;1.90;;;14.10;1.00;;;;;;5070590;28;20495;-74
2022/12/25 14:27:50;;;;;;;1.57;1.27;;;13.90;1.00;;;;;;5071140;28;20434;-74
2022/12/25 14:30:18;;;;;;;3.90;2.10;;;13.80;1.00;;;;;;5070566;28;20456;-74
2022/12/25 14:32:49;;;;;;;3.73;1.77;;;13.60;99.90;;;;;;5070137;28;20523;-75
2022/12/25 14:35:17;;;;;;;3.53;1.67;;;13.50;1.00;;;;;;5070546;28;20473;-74
2022/12/25 14:37:44;;;;;;;2.43;1.43;;;13.40;1.00;;;;;;5070256;28;20913;-74
2022/12/25 14:40:21;;;;;;;2.03;1.80;;;13.30;1.00;;;;;;5070411;28;20450;-73
2022/12/25 14:42:56;;;;;;;2.80;1.50;;;13.20;1.00;;;;;;5073518;28;20576;-74
2022/12/25 14:45:29;;;;;;;3.50;2.17;;;13.10;1.00;;;;;;5074264;28;20947;-74
2022/12/25 14:47:57;;;;;;;3.87;1.80;;;13.00;25.50;;;;;;5074898;28;20450;-74